createdAt,value
2022-10-10T00:00:54.173Z,7.47
2022-10-10T00:03:27.439Z,6.95
2022-10-10T00:06:00.223Z,6.62
2022-10-10T00:08:33.619Z,7.10
2022-10-10T00:11:07.220Z,6.90
2022-10-10T00:13:40.826Z,7.53
2022-10-10T00:16:14.415Z,6.42
2022-10-10T00:18:47.753Z,6.67
2022-10-10T00:21:22.480Z,6.58
2022-10-10T00:26:29.987Z,6.37
2022-10-10T00:31:35.713Z,6.47
2022-10-10T00:34:09.062Z,6.73
2022-10-10T00:36:41.915Z,6.05
2022-10-10T00:39:14.803Z,6.50
2022-10-10T00:41:47.885Z,6.60
2022-10-10T00:44:20.826Z,6.42
2022-10-10T00:46:54.653Z,6.05
2022-10-10T00:49:29.124Z,7.22
2022-10-10T00:52:03.014Z,5.92
2022-10-10T00:54:36.815Z,5.72
2022-10-10T00:57:13.382Z,5.92
2022-10-10T00:59:48.290Z,5.72
2022-10-10T01:02:21.227Z,6.60
2022-10-10T01:04:54.181Z,6.60
2022-10-10T01:07:32.286Z,5.70
2022-10-10T01:10:12.081Z,11.68
2022-10-10T01:13:01.778Z,5.47
2022-10-10T01:15:55.163Z,5.95
2022-10-10T01:18:39.395Z,5.67
2022-10-10T01:21:25.988Z,8.53
2022-10-10T01:24:36.276Z,5.58
2022-10-10T01:27:46.112Z,5.25
2022-10-10T01:30:23.369Z,5.00
2022-10-10T01:33:09.444Z,4.97
2022-10-10T01:35:50.233Z,5.30
2022-10-10T01:38:39.749Z,4.72
2022-10-10T01:41:25.935Z,4.75
2022-10-10T01:44:00.948Z,4.90
2022-10-10T01:46:35.095Z,5.15
2022-10-10T01:49:07.926Z,5.23
2022-10-10T01:51:57.637Z,5.60
2022-10-10T01:54:35.659Z,5.12
2022-10-10T01:57:52.439Z,4.10
2022-10-10T02:00:25.385Z,5.53
2022-10-10T02:03:15.472Z,4.20
2022-10-10T02:06:03.919Z,4.20
2022-10-10T02:08:50.325Z,4.60
2022-10-10T02:11:23.357Z,4.37
2022-10-10T02:14:21.855Z,4.72
2022-10-10T02:16:57.185Z,3.95
2022-10-10T02:19:31.375Z,4.28
2022-10-10T02:22:04.899Z,4.22
2022-10-10T02:24:38.250Z,4.55
2022-10-10T02:27:18.581Z,4.53
2022-10-10T02:29:52.345Z,4.28
2022-10-10T02:32:35.909Z,4.58
2022-10-10T02:35:19.462Z,3.92
2022-10-10T02:37:53.260Z,4.72
2022-10-10T02:40:32.341Z,4.20
2022-10-10T02:43:08.256Z,3.92
2022-10-10T02:45:42.143Z,3.65
2022-10-10T02:48:15.202Z,4.00
2022-10-10T02:50:48.413Z,3.77
2022-10-10T02:53:22.834Z,3.92
2022-10-10T02:55:55.891Z,4.12
2022-10-10T02:58:28.796Z,4.15
2022-10-10T03:01:01.941Z,4.40
2022-10-10T03:03:35.000Z,4.40
2022-10-10T03:06:09.357Z,4.90
2022-10-10T03:08:42.285Z,4.12
2022-10-10T03:11:16.912Z,4.22
2022-10-10T03:13:49.838Z,4.25
2022-10-10T03:16:23.683Z,4.33
2022-10-10T03:18:56.533Z,4.75
2022-10-10T03:21:29.342Z,4.55
2022-10-10T03:24:02.226Z,4.35
2022-10-10T03:26:35.042Z,4.20
2022-10-10T03:29:08.067Z,4.20
2022-10-10T03:31:41.156Z,3.87
2022-10-10T03:34:14.561Z,4.20
2022-10-10T03:36:48.117Z,4.67
2022-10-10T03:39:30.303Z,4.83
2022-10-10T03:42:03.223Z,4.65
2022-10-10T03:44:36.516Z,4.30
2022-10-10T03:47:09.198Z,4.22
2022-10-10T03:49:42.339Z,4.40
2022-10-10T03:52:15.102Z,4.28
2022-10-10T03:54:48.058Z,4.50
2022-10-10T03:57:21.729Z,4.53
2022-10-10T03:59:55.011Z,4.40
2022-10-10T04:02:29.264Z,4.35
2022-10-10T04:05:03.712Z,4.70
2022-10-10T04:07:37.467Z,4.87
2022-10-10T04:10:11.655Z,5.53
2022-10-10T04:12:44.546Z,4.78
2022-10-10T04:15:17.747Z,4.95
2022-10-10T04:17:51.078Z,4.55
2022-10-10T04:20:24.046Z,4.90
2022-10-10T04:22:56.683Z,5.17
2022-10-10T04:25:29.919Z,5.47
2022-10-10T04:28:02.772Z,6.35
2022-10-10T04:30:36.520Z,5.80
2022-10-10T04:33:09.916Z,5.97
2022-10-10T04:35:45.013Z,4.80
2022-10-10T04:38:20.077Z,4.65
2022-10-10T04:40:53.114Z,5.42
2022-10-10T04:43:26.579Z,5.53
2022-10-10T04:46:00.040Z,4.35
2022-10-10T04:48:33.015Z,5.20
2022-10-10T04:51:06.294Z,4.75
2022-10-10T04:53:39.902Z,4.90
2022-10-10T04:56:12.855Z,4.70
2022-10-10T04:58:45.905Z,4.78
2022-10-10T05:01:18.889Z,4.92
2022-10-10T05:03:52.836Z,4.62
2022-10-10T05:06:25.856Z,4.13
2022-10-10T05:08:59.561Z,4.55
2022-10-10T05:11:32.732Z,5.95
2022-10-10T05:14:06.932Z,5.37
2022-10-10T05:16:40.516Z,5.45
2022-10-10T05:19:13.300Z,5.10
2022-10-10T05:24:20.223Z,4.45
2022-10-10T05:26:53.082Z,5.28
2022-10-10T05:29:26.557Z,4.37
2022-10-10T05:32:00.054Z,4.62
2022-10-10T05:34:33.098Z,5.10
2022-10-10T05:37:06.016Z,4.75
2022-10-10T05:39:39.176Z,4.70
2022-10-10T05:42:14.312Z,4.95
2022-10-10T05:44:47.078Z,5.33
2022-10-10T05:47:23.087Z,5.03
2022-10-10T05:49:54.296Z,5.20
2022-10-10T05:52:29.003Z,7.03
2022-10-10T05:55:01.956Z,7.17
2022-10-10T05:57:34.820Z,6.42
2022-10-10T06:00:09.738Z,7.40
2022-10-10T06:02:42.810Z,6.80
2022-10-10T06:05:15.583Z,6.92
2022-10-10T06:08:09.278Z,5.72
2022-10-10T06:10:23.424Z,5.60
2022-10-10T06:12:56.223Z,6.47
2022-10-10T06:15:29.593Z,5.80
2022-10-10T06:18:03.382Z,5.33
2022-10-10T06:23:12.583Z,4.65
2022-10-10T06:25:45.561Z,4.30
2022-10-10T06:28:18.585Z,4.80
2022-10-10T06:30:52.358Z,5.28
2022-10-10T06:33:25.523Z,6.33
2022-10-10T06:35:59.462Z,5.30
2022-10-10T06:38:32.479Z,5.45
2022-10-10T06:41:06.871Z,6.05
2022-10-10T06:43:41.597Z,6.53
2022-10-10T06:46:14.997Z,6.22
2022-10-10T06:48:47.952Z,6.60
2022-10-10T06:51:20.908Z,6.42
2022-10-10T06:53:53.704Z,7.10
2022-10-10T06:56:28.075Z,9.53
2022-10-10T06:59:01.286Z,7.67
2022-10-10T07:04:07.132Z,7.20
2022-10-10T07:06:40.128Z,7.12
2022-10-10T07:09:13.201Z,7.05
2022-10-10T07:11:46.362Z,7.10
2022-10-10T07:14:20.031Z,7.35
2022-10-10T07:16:52.872Z,7.75
2022-10-10T07:19:25.706Z,7.97
2022-10-10T07:21:58.617Z,8.40
2022-10-10T07:24:31.753Z,8.33
2022-10-10T07:27:08.593Z,9.50
2022-10-10T07:29:41.692Z,10.90
2022-10-10T07:32:14.588Z,13.18
2022-10-10T07:34:47.463Z,14.07
2022-10-10T07:37:20.698Z,15.43
2022-10-10T07:39:56.851Z,14.58
2022-10-10T07:42:29.687Z,14.28
2022-10-10T07:45:03.070Z,14.20
2022-10-10T07:47:36.317Z,13.20
2022-10-10T07:50:11.824Z,14.20
2022-10-10T07:52:45.003Z,15.98
2022-10-10T07:55:18.864Z,15.90
2022-10-10T07:57:53.595Z,16.07
2022-10-10T08:00:26.471Z,17.92
2022-10-10T08:02:59.588Z,17.90
2022-10-10T08:05:32.908Z,17.55
2022-10-10T08:08:08.074Z,18.07
2022-10-10T08:10:45.599Z,18.62
2022-10-10T08:13:18.361Z,17.95
2022-10-10T08:15:55.181Z,16.97
2022-10-10T08:18:28.433Z,17.80
2022-10-10T08:21:10.123Z,17.45
2022-10-10T08:23:46.526Z,15.55
2022-10-10T08:26:24.670Z,18.10
2022-10-10T08:29:08.089Z,17.07
2022-10-10T08:31:59.640Z,16.57
2022-10-10T08:34:33.599Z,16.02
2022-10-10T08:37:06.752Z,15.93
2022-10-10T08:39:40.213Z,14.95
2022-10-10T08:42:20.940Z,13.40
2022-10-10T08:45:00.763Z,16.00
2022-10-10T08:48:03.110Z,15.23
2022-10-10T08:50:49.537Z,16.30
2022-10-10T08:53:33.058Z,15.00
2022-10-10T08:56:08.886Z,15.80
2022-10-10T08:58:46.249Z,15.78
2022-10-10T09:01:28.676Z,15.40
2022-10-10T09:04:05.204Z,15.55
2022-10-10T09:07:02.084Z,14.65
2022-10-10T09:09:52.249Z,16.02
2022-10-10T09:12:47.948Z,14.78
2022-10-10T09:15:28.311Z,15.43
2022-10-10T09:18:24.525Z,15.43
2022-10-10T09:21:12.946Z,17.02
2022-10-10T09:24:03.531Z,15.90
2022-10-10T09:26:44.575Z,15.38
2022-10-10T09:29:33.950Z,14.20
2022-10-10T09:32:27.168Z,14.10
2022-10-10T09:35:06.079Z,14.60
2022-10-10T09:37:47.533Z,13.75
2022-10-10T09:40:36.327Z,14.98
2022-10-10T09:43:17.525Z,15.53
2022-10-10T09:45:57.332Z,15.60
2022-10-10T09:48:45.781Z,14.23
2022-10-10T09:51:20.920Z,13.48
2022-10-10T09:53:54.295Z,13.35
2022-10-10T09:56:33.489Z,13.10
2022-10-10T09:59:06.397Z,13.95
2022-10-10T10:01:41.425Z,13.70
2022-10-10T10:04:28.416Z,13.22
2022-10-10T10:07:06.457Z,14.83
2022-10-10T10:09:42.905Z,14.33
2022-10-10T10:12:16.100Z,14.35
2022-10-10T10:14:49.383Z,14.63
2022-10-10T10:17:36.271Z,13.85
2022-10-10T10:20:34.920Z,14.40
2022-10-10T10:23:25.710Z,13.50
2022-10-10T10:26:09.065Z,16.00
2022-10-10T10:28:44.313Z,15.00
2022-10-10T10:31:35.832Z,14.25
2022-10-10T10:34:30.412Z,13.70
2022-10-10T10:37:29.492Z,13.70
2022-10-10T10:40:12.989Z,13.28
2022-10-10T10:43:35.650Z,14.35
2022-10-10T10:46:21.854Z,12.95
2022-10-10T10:49:25.900Z,13.48
2022-10-10T10:52:18.096Z,13.62
2022-10-10T10:55:19.982Z,13.70
2022-10-10T11:01:24.135Z,16.27
2022-10-10T11:05:21.052Z,14.03
2022-10-10T11:07:30.118Z,12.88
2022-10-10T11:10:05.082Z,15.83
2022-10-10T11:13:06.795Z,13.95
2022-10-10T11:16:05.417Z,14.35
2022-10-10T11:18:32.788Z,13.90
2022-10-10T11:21:10.113Z,14.68
2022-10-10T11:24:10.033Z,11.90
2022-10-10T11:26:51.042Z,11.50
2022-10-10T11:29:34.587Z,11.90
2022-10-10T11:32:16.770Z,13.40
2022-10-10T11:35:10.162Z,13.05
2022-10-10T11:37:46.783Z,14.45
2022-10-10T11:40:44.962Z,14.95
2022-10-10T11:43:44.579Z,15.85
2022-10-10T11:46:47.439Z,14.25
2022-10-10T11:49:39.780Z,11.48
2022-10-10T11:52:50.393Z,12.33
2022-10-10T11:55:42.956Z,11.43
2022-10-10T11:58:21.364Z,10.53
2022-10-10T12:01:14.237Z,10.53
2022-10-10T12:03:47.390Z,10.82
2022-10-10T12:06:37.542Z,12.28
2022-10-10T12:09:18.148Z,11.85
2022-10-10T12:12:01.186Z,11.90
2022-10-10T12:14:38.590Z,10.05
2022-10-10T12:17:24.649Z,9.10
2022-10-10T12:19:57.977Z,8.13
2022-10-10T12:22:31.783Z,9.63
2022-10-10T12:25:21.440Z,7.33
2022-10-10T12:28:18.914Z,6.60
2022-10-10T12:31:10.926Z,6.87
2022-10-10T12:33:50.524Z,6.22
2022-10-10T12:36:30.755Z,5.60
2022-10-10T12:39:09.530Z,5.65
2022-10-10T12:41:57.696Z,5.20
2022-10-10T12:44:46.543Z,4.10
2022-10-10T12:47:59.897Z,4.00
2022-10-10T12:50:32.777Z,4.10
2022-10-10T12:53:18.440Z,2.85
2022-10-10T12:55:58.406Z,3.15
2022-10-10T12:58:41.009Z,2.80
2022-10-10T13:01:30.402Z,3.30
2022-10-10T13:04:03.696Z,3.50
2022-10-10T13:06:40.148Z,5.20
2022-10-10T13:09:22.071Z,4.00
2022-10-10T13:12:04.364Z,4.00
2022-10-10T13:14:44.498Z,3.40
2022-10-10T13:17:30.950Z,3.83
2022-10-10T13:20:07.460Z,4.28
2022-10-10T13:22:42.990Z,4.53
2022-10-10T13:25:18.723Z,3.77
2022-10-10T13:27:52.067Z,3.67
2022-10-10T13:30:26.890Z,2.67
2022-10-10T13:33:00.400Z,2.75
2022-10-10T13:35:33.439Z,2.45
2022-10-10T13:38:08.267Z,2.45
2022-10-10T13:40:44.892Z,2.45
2022-10-10T13:43:21.876Z,3.20
2022-10-10T13:45:59.662Z,2.95
2022-10-10T13:48:40.870Z,2.83
2022-10-10T13:51:15.851Z,2.80
2022-10-10T13:53:54.002Z,2.50
2022-10-10T13:56:32.350Z,2.80
2022-10-10T13:59:09.652Z,2.20
2022-10-10T14:01:46.248Z,2.77
2022-10-10T14:04:35.637Z,2.98
2022-10-10T14:07:25.204Z,2.37
2022-10-10T14:10:08.201Z,2.62
2022-10-10T14:12:45.482Z,2.55
2022-10-10T14:15:38.399Z,2.95
2022-10-10T14:18:23.521Z,2.30
2022-10-10T14:20:56.684Z,2.20
2022-10-10T14:23:29.835Z,2.25
2022-10-10T14:26:03.123Z,2.40
2022-10-10T14:28:39.204Z,2.27
2022-10-10T14:31:14.072Z,2.60
2022-10-10T14:33:46.872Z,2.40
2022-10-10T14:36:20.200Z,2.58
2022-10-10T14:38:53.345Z,4.95
2022-10-10T14:41:26.345Z,8.78
2022-10-10T14:43:59.773Z,2.93
2022-10-10T14:46:32.914Z,2.67
2022-10-10T14:49:09.796Z,2.55
2022-10-10T14:51:41.671Z,3.30
2022-10-10T14:54:14.562Z,4.00
2022-10-10T14:57:09.373Z,4.85
2022-10-10T14:59:47.600Z,4.58
2022-10-10T15:01:57.366Z,4.20
2022-10-10T15:04:30.548Z,3.52
2022-10-10T15:07:16.374Z,3.50
2022-10-10T15:09:44.916Z,4.00
2022-10-10T15:12:14.556Z,3.77
2022-10-10T15:14:52.224Z,4.87
2022-10-10T15:17:26.623Z,4.60
2022-10-10T15:19:59.687Z,4.17
2022-10-10T15:22:34.118Z,4.20
2022-10-10T15:25:08.808Z,3.80
2022-10-10T15:27:41.778Z,4.75
2022-10-10T15:30:15.232Z,4.28
2022-10-10T15:32:50.108Z,5.05
2022-10-10T15:35:25.621Z,5.00
2022-10-10T15:38:01.120Z,4.12
2022-10-10T15:40:33.957Z,3.87
2022-10-10T15:43:10.510Z,3.80
2022-10-10T15:45:55.886Z,5.08
2022-10-10T15:48:23.698Z,3.08
2022-10-10T15:50:56.510Z,3.08
2022-10-10T15:53:31.381Z,3.62
2022-10-10T15:56:11.391Z,3.47
2022-10-10T15:58:45.508Z,3.77
2022-10-10T16:01:21.748Z,4.30
2022-10-10T16:03:55.929Z,4.80
2022-10-10T16:06:30.263Z,5.65
2022-10-10T16:09:26.647Z,5.10
2022-10-10T16:11:39.180Z,5.00
2022-10-10T16:14:12.611Z,5.33
2022-10-10T16:16:46.017Z,5.12
2022-10-10T16:19:19.015Z,5.20
2022-10-10T16:21:55.475Z,5.70
2022-10-10T16:24:28.275Z,4.85
2022-10-10T16:27:03.736Z,4.80
2022-10-10T16:29:38.843Z,4.47
2022-10-10T16:32:14.627Z,4.60
2022-10-10T16:34:51.832Z,5.37
2022-10-10T16:37:27.537Z,5.17
2022-10-10T16:40:00.615Z,4.90
2022-10-10T16:42:36.760Z,5.05
2022-10-10T16:45:11.181Z,5.33
2022-10-10T16:47:48.901Z,5.53
2022-10-10T16:50:22.973Z,4.90
2022-10-10T16:52:56.709Z,4.97
2022-10-10T16:55:33.246Z,4.60
2022-10-10T16:58:09.775Z,4.92
2022-10-10T17:00:46.778Z,5.67
2022-10-10T17:03:22.641Z,5.67
2022-10-10T17:06:22.918Z,4.95
2022-10-10T17:09:00.886Z,4.72
2022-10-10T17:11:39.419Z,4.75
2022-10-10T17:14:14.447Z,4.80
2022-10-10T17:19:53.093Z,4.75
2022-10-10T17:22:27.597Z,4.90
2022-10-10T17:25:05.451Z,4.50
2022-10-10T17:27:44.681Z,3.92
2022-10-10T17:30:24.647Z,3.70
2022-10-10T17:33:00.003Z,4.67
2022-10-10T17:35:37.820Z,4.33
2022-10-10T17:38:38.394Z,4.50
2022-10-10T17:41:02.770Z,4.37
2022-10-10T17:43:39.706Z,3.80
2022-10-10T17:46:35.297Z,3.33
2022-10-10T17:49:06.117Z,3.00
2022-10-10T17:51:43.720Z,3.22
2022-10-10T17:54:19.064Z,3.45
2022-10-10T17:56:53.642Z,2.33
2022-10-10T17:59:27.653Z,1.70
2022-10-10T18:02:01.748Z,1.47
2022-10-10T18:04:35.712Z,2.25
2022-10-10T18:07:10.175Z,2.60
2022-10-10T18:09:45.621Z,1.67
2022-10-10T18:12:20.811Z,1.02
2022-10-10T18:14:54.987Z,1.22
2022-10-10T18:17:30.130Z,1.05
2022-10-10T18:20:02.906Z,1.10
2022-10-10T18:22:37.331Z,1.97
2022-10-10T18:25:12.252Z,0.90
2022-10-10T18:27:46.682Z,0.70
2022-10-10T18:30:20.732Z,0.80
2022-10-10T18:32:55.037Z,1.07
2022-10-10T18:35:28.131Z,1.90
2022-10-10T18:38:01.092Z,1.27
2022-10-10T18:40:34.262Z,1.12
2022-10-10T18:43:07.703Z,0.80
2022-10-10T18:45:41.670Z,1.22
2022-10-10T18:48:14.803Z,0.90
2022-10-10T18:50:47.519Z,0.90
2022-10-10T18:53:20.457Z,1.20
2022-10-10T18:56:01.440Z,1.30
2022-10-10T18:58:37.718Z,1.12
2022-10-10T19:01:18.221Z,1.40
2022-10-10T19:03:51.736Z,1.40
2022-10-10T19:06:26.928Z,1.50
2022-10-10T19:09:01.838Z,1.30
2022-10-10T19:11:42.276Z,1.77
2022-10-10T19:14:18.804Z,1.55
2022-10-10T19:16:52.182Z,1.30
2022-10-10T19:19:25.493Z,1.40
2022-10-10T19:21:58.544Z,1.30
2022-10-10T19:24:32.024Z,1.20
2022-10-10T19:27:05.661Z,1.15
2022-10-10T19:29:38.872Z,1.22
2022-10-10T19:32:11.827Z,1.07
2022-10-10T19:34:45.981Z,1.60
2022-10-10T19:37:20.329Z,1.60
2022-10-10T19:42:25.531Z,1.40
2022-10-10T19:44:59.150Z,1.40
2022-10-10T19:47:32.151Z,1.30
2022-10-10T19:50:05.045Z,1.10
2022-10-10T19:52:38.875Z,1.42
2022-10-10T19:55:12.110Z,1.15
2022-10-10T19:57:44.835Z,1.00
2022-10-10T20:00:18.588Z,1.22
2022-10-10T20:02:51.383Z,1.02
2022-10-10T20:05:24.559Z,1.05
2022-10-10T20:07:57.439Z,1.10
2022-10-10T20:10:32.576Z,0.90
2022-10-10T20:13:06.117Z,1.12
2022-10-10T20:15:44.973Z,0.80
2022-10-10T20:18:21.055Z,0.88
2022-10-10T20:20:55.067Z,0.80
2022-10-10T20:23:28.231Z,0.65
2022-10-10T20:26:01.950Z,0.70
2022-10-10T20:28:34.916Z,0.88
2022-10-10T20:31:14.624Z,0.90
2022-10-10T20:33:50.382Z,0.62
2022-10-10T20:36:24.564Z,0.72
2022-10-10T20:39:04.923Z,0.70
2022-10-10T20:41:40.611Z,0.50
2022-10-10T20:44:15.816Z,0.55
2022-10-10T20:46:50.185Z,0.53
2022-10-10T20:49:24.414Z,0.80
2022-10-10T20:51:58.406Z,0.70
2022-10-10T20:54:31.425Z,0.70
2022-10-10T20:57:04.675Z,0.37
2022-10-10T20:59:38.866Z,0.62
2022-10-10T21:02:19.249Z,0.40
2022-10-10T21:04:49.620Z,0.75
2022-10-10T21:07:22.810Z,0.40
2022-10-10T21:09:55.663Z,0.50
2022-10-10T21:12:28.986Z,0.60
2022-10-10T21:15:03.664Z,0.60
2022-10-10T21:17:36.729Z,0.65
2022-10-10T21:20:11.252Z,0.42
2022-10-10T21:22:45.421Z,0.70
2022-10-10T21:25:18.675Z,0.42
2022-10-10T21:27:51.609Z,0.82
2022-10-10T21:30:29.534Z,0.47
2022-10-10T21:33:01.031Z,0.50
2022-10-10T21:35:36.473Z,0.70
2022-10-10T21:38:09.461Z,0.70
2022-10-10T21:40:43.091Z,0.60
2022-10-10T21:43:16.641Z,0.75
2022-10-10T21:45:49.760Z,0.72
2022-10-10T21:48:22.968Z,0.53
2022-10-10T21:51:01.076Z,0.80
2022-10-10T21:53:34.123Z,0.78
2022-10-10T21:56:09.518Z,0.85
2022-10-10T21:58:45.443Z,0.93
2022-10-10T22:01:22.102Z,1.17
2022-10-10T22:03:56.611Z,0.82
2022-10-10T22:06:29.396Z,1.12
2022-10-10T22:09:04.229Z,1.15
2022-10-10T22:11:37.755Z,1.00
2022-10-10T22:14:11.202Z,1.15
2022-10-10T22:16:44.602Z,1.37
2022-10-10T22:19:17.918Z,1.25
2022-10-10T22:21:50.758Z,0.98
2022-10-10T22:24:23.499Z,1.10
2022-10-10T22:26:56.596Z,1.07
2022-10-10T22:29:29.560Z,1.07
2022-10-10T22:32:02.791Z,1.10
2022-10-10T22:34:36.950Z,0.80
2022-10-10T22:37:10.162Z,0.90
2022-10-10T22:39:43.309Z,0.90
2022-10-10T22:42:16.287Z,1.00
2022-10-10T22:44:49.083Z,1.00
2022-10-10T22:47:22.279Z,1.00
2022-10-10T22:49:55.371Z,1.20
2022-10-10T22:52:29.030Z,1.32
2022-10-10T22:55:02.380Z,1.77
2022-10-10T22:57:37.239Z,1.10
2022-10-10T23:00:12.070Z,1.62
2022-10-10T23:02:45.172Z,2.00
2022-10-10T23:05:18.227Z,2.02
2022-10-10T23:07:52.989Z,1.83
2022-10-10T23:10:26.003Z,2.25
2022-10-10T23:12:59.467Z,1.98
2022-10-10T23:15:33.253Z,1.95
2022-10-10T23:18:06.671Z,2.00
2022-10-10T23:20:40.130Z,1.52
2022-10-10T23:23:13.031Z,2.92
2022-10-10T23:25:48.032Z,1.10
2022-10-10T23:28:21.054Z,0.80
2022-10-10T23:30:54.207Z,0.70
2022-10-10T23:33:27.068Z,3.22
2022-10-10T23:36:08.189Z,0.62
2022-10-10T23:38:41.897Z,0.80
2022-10-10T23:41:15.157Z,0.90
2022-10-10T23:43:48.752Z,1.17
2022-10-10T23:46:21.612Z,0.70
2022-10-10T23:48:54.524Z,0.80
2022-10-10T23:51:29.402Z,0.85
2022-10-10T23:54:02.212Z,0.90
2022-10-10T23:56:35.149Z,0.98
2022-10-10T23:59:08.060Z,0.80
